Time;durP1;ratioP1;P1;durP2;ratioP2;P2;SDS_P1;SDS_P2;PMS_P1;PMS_P2;Temp;Humidity;BMP_temperature;BMP_pressure;BME280_temperature;BME280_humidity;BME280_pressure;Samples;Min_cycle;Max_cycle;Signal;HPM_P1;HPM_P2
2022/09/27 00:01:09;;;;;;;5.45;4.70;;;;;;;23.54;44.63;93985.28;4954906;28;20042;-65
2022/09/27 00:03:34;;;;;;;5.93;4.50;;;;;;;23.69;44.78;94018.13;4938168;28;20045;-65
2022/09/27 00:06:04;;;;;;;5.55;4.97;;;;;;;23.60;44.72;94013.13;4948991;28;21276;-64
2022/09/27 00:08:30;;;;;;;6.53;5.00;;;;;;;23.68;44.64;94027.59;4948332;28;20050;-65
2022/09/27 00:11:24;;;;;;;5.90;4.75;;;;;;;23.67;44.95;94015.22;4948913;28;20043;-63
2022/09/27 00:13:50;;;;;;;5.82;5.00;;;;;;;23.67;44.95;94020.66;4956957;28;20076;-65
2022/09/27 00:16:15;;;;;;;6.35;5.10;;;;;;;23.26;44.52;93966.22;4957635;28;20062;-65
2022/09/27 00:18:41;;;;;;;5.78;4.90;;;;;;;23.56;44.80;94015.47;4964187;28;20069;-66
2022/09/27 00:21:11;;;;;;;5.65;4.85;;;;;;;23.66;44.64;94035.56;4951984;28;20730;-65
2022/09/27 00:23:36;;;;;;;6.03;5.07;;;;;;;23.62;44.61;94035.88;4943200;28;20054;-66
2022/09/27 00:26:02;;;;;;;6.15;5.20;;;;;;;23.63;45.11;94047.50;4941023;28;20142;-66
2022/09/27 00:28:27;;;;;;;7.03;5.22;;;;;;;23.67;44.59;94037.03;4944040;28;20052;-65
2022/09/27 00:30:53;;;;;;;6.75;5.00;;;;;;;23.64;44.55;94041.53;4942624;28;20035;-66
2022/09/27 00:33:19;;;;;;;6.10;5.10;;;;;;;23.56;44.58;94015.47;4943535;28;20036;-64
2022/09/27 00:35:45;;;;;;;5.95;5.10;;;;;;;23.53;44.46;94005.66;4942469;28;20500;-60
2022/09/27 00:38:10;;;;;;;5.95;5.00;;;;;;;23.21;44.61;93963.63;4943580;28;21300;-67
2022/09/27 00:40:36;;;;;;;6.25;5.22;;;;;;;23.56;44.72;94007.31;4943237;28;20054;-66
2022/09/27 00:43:01;;;;;;;7.57;4.90;;;;;;;23.61;44.86;94018.06;4945146;28;20180;-64
2022/09/27 00:45:27;;;;;;;5.25;4.60;;;;;;;23.02;44.64;93933.88;4948032;28;20055;-66
2022/09/27 00:47:59;;;;;;;6.30;5.20;;;;;;;23.52;45.17;94004.19;4946331;28;20051;-64
2022/09/27 00:50:35;;;;;;;5.68;4.93;;;;;;;23.61;45.09;94006.44;4949526;28;20043;-65
2022/09/27 00:53:03;;;;;;;6.10;4.70;;;;;;;23.57;44.72;94000.56;4948055;28;20307;-67
2022/09/27 00:55:32;;;;;;;5.82;5.07;;;;;;;23.61;44.92;94014.59;4947357;28;20055;-61
2022/09/27 00:57:57;;;;;;;5.93;5.18;;;;;;;23.41;44.83;93979.94;4948977;28;20042;-65
2022/09/27 01:00:23;;;;;;;5.93;4.90;;;;;;;23.61;44.88;94000.97;4950225;28;20053;-63
2022/09/27 01:02:50;;;;;;;7.03;5.38;;;;;;;23.59;44.92;94015.13;4959970;28;20116;-65
2022/09/27 01:05:17;;;;;;;6.30;5.13;;;;;;;23.09;44.70;93929.75;4937673;28;20137;-66
2022/09/27 01:07:42;;;;;;;5.90;5.00;;;;;;;23.59;44.81;94008.97;4923776;28;20046;-62
2022/09/27 01:10:08;;;;;;;6.15;5.05;;;;;;;23.60;44.63;94004.97;4938932;28;20069;-62
2022/09/27 01:12:45;;;;;;;6.05;5.20;;;;;;;23.59;45.12;94015.13;4939053;28;20144;-61
2022/09/27 01:15:43;;;;;;;6.45;5.25;;;;;;;23.59;44.69;94006.25;4948912;28;20058;-61
2022/09/27 01:18:30;;;;;;;7.07;5.60;;;;;;;23.43;45.00;93977.41;4936395;28;20050;-62
2022/09/27 01:21:07;;;;;;;5.80;5.07;;;;;;;23.56;44.74;93988.22;4942754;28;20046;-61
2022/09/27 01:24:08;;;;;;;6.57;5.25;;;;;;;23.36;45.22;93969.91;4949257;28;21491;-63
2022/09/27 01:26:42;;;;;;;6.28;4.97;;;;;;;23.57;44.92;93978.78;4921504;28;20106;-56
2022/09/27 01:29:26;;;;;;;5.88;4.70;;;;;;;23.33;44.66;93956.63;4983205;28;20050;-61
2022/09/27 01:32:04;;;;;;;6.85;5.03;;;;;;;23.55;45.02;93970.41;4991445;28;20924;-62
2022/09/27 01:34:42;;;;;;;6.22;4.85;;;;;;;23.56;45.21;93990.97;4998914;28;20053;-57
2022/09/27 01:37:17;;;;;;;6.93;5.05;;;;;;;23.49;45.26;93983.44;4978280;28;20046;-57
2022/09/27 01:40:08;;;;;;;6.65;5.32;;;;;;;23.42;45.35;93978.66;4966895;28;20109;-56
2022/09/27 01:42:39;;;;;;;5.90;4.80;;;;;;;23.47;44.81;93980.53;4946705;28;20049;-57
2022/09/27 01:45:25;;;;;;;6.50;4.65;;;;;;;23.53;44.70;93989.31;4975575;28;20038;-67
2022/09/27 01:47:57;;;;;;;5.40;4.70;;;;;;;23.54;45.12;94001.66;5001653;28;20058;-70
2022/09/27 01:50:36;;;;;;;5.68;5.07;;;;;;;23.55;45.13;94008.56;4980323;28;20050;-66
2022/09/27 01:53:07;;;;;;;5.57;4.70;;;;;;;23.45;45.35;93983.03;4968481;28;20035;-67
2022/09/27 01:55:34;;;;;;;6.15;4.78;;;;;;;23.54;45.14;93990.75;4966780;28;20035;-67
2022/09/27 01:58:14;;;;;;;6.65;5.30;;;;;;;23.15;45.24;93933.06;4968107;28;20037;-67
2022/09/27 02:00:40;;;;;;;6.97;5.70;;;;;;;23.17;45.19;93936.72;4968643;28;20522;-67
2022/09/27 02:03:32;;;;;;;6.85;4.78;;;;;;;23.49;45.21;93978.00;4948787;28;20074;-65
2022/09/27 02:06:16;;;;;;;7.00;4.97;;;;;;;23.29;45.00;93937.16;4941477;28;20503;-68
2022/09/27 02:08:46;;;;;;;6.60;4.70;;;;;;;23.52;45.09;93976.94;4950378;28;20122;-67
2022/09/27 02:11:12;;;;;;;7.18;5.10;;;;;;;23.50;44.82;93963.13;4961110;28;20677;-66
2022/09/27 02:13:53;;;;;;;5.95;4.93;;;;;;;23.19;45.15;93920.56;4982372;28;20118;-67
2022/09/27 02:16:31;;;;;;;6.28;5.28;;;;;;;23.47;44.96;93934.22;4964000;28;20047;-68
2022/09/27 02:19:13;;;;;;;5.93;5.05;;;;;;;23.15;45.54;93895.69;4981050;28;20089;-66
2022/09/27 02:21:47;;;;;;;6.00;5.15;;;;;;;22.74;45.06;93845.97;4966989;28;20033;-67
2022/09/27 02:24:14;;;;;;;7.93;4.65;;;;;;;23.43;45.11;93931.09;4966133;28;20069;-65
2022/09/27 02:26:41;;;;;;;6.30;5.15;;;;;;;23.21;45.35;93888.06;4982917;28;20097;-66
2022/09/27 02:29:19;;;;;;;5.90;4.93;;;;;;;23.49;45.34;93909.88;4958611;28;20125;-67
2022/09/27 02:31:45;;;;;;;6.00;4.80;;;;;;;23.34;45.04;93885.25;4969281;28;20042;-64
2022/09/27 02:34:30;;;;;;;5.63;4.90;;;;;;;23.21;45.27;93873.72;4973565;28;20053;-67
2022/09/27 02:36:55;;;;;;;6.43;5.50;;;;;;;23.49;44.99;93901.69;4966802;28;20861;-69
2022/09/27 02:39:21;;;;;;;6.45;4.97;;;;;;;23.11;45.28;93848.28;4950062;28;20758;-67
2022/09/27 02:41:46;;;;;;;6.63;5.03;;;;;;;23.24;45.15;93865.22;4949013;28;20479;-69
2022/09/27 02:44:12;;;;;;;5.63;4.95;;;;;;;23.13;45.35;93856.63;4973170;28;20046;-67
2022/09/27 02:46:50;;;;;;;6.65;5.25;;;;;;;23.46;45.22;93919.13;4951785;28;20523;-67
2022/09/27 02:49:41;;;;;;;7.32;5.60;;;;;;;23.49;45.45;93921.50;4962297;28;20054;-65
2022/09/27 02:52:13;;;;;;;6.45;4.78;;;;;;;23.50;45.45;93920.25;4968603;28;20404;-68
2022/09/27 02:55:05;;;;;;;6.05;5.13;;;;;;;23.48;45.25;93927.47;4986796;28;20027;-68
2022/09/27 02:57:40;;;;;;;6.80;4.95;;;;;;;23.48;45.25;93932.94;4975366;28;20100;-67
2022/09/27 03:00:18;;;;;;;6.95;5.32;;;;;;;23.11;45.34;93872.78;4978369;28;20038;-66
2022/09/27 03:02:47;;;;;;;9.57;4.88;;;;;;;23.32;46.29;93912.31;4957268;28;20038;-68
2022/09/27 03:05:22;;;;;;;8.50;5.32;;;;;;;23.12;45.69;93847.72;4979896;28;20078;-68
2022/09/27 03:07:48;;;;;;;6.47;4.85;;;;;;;23.09;45.72;93832.47;4963492;28;20035;-67
2022/09/27 03:10:22;;;;;;;7.13;5.32;;;;;;;23.24;45.39;93854.31;4974501;28;20039;-68
2022/09/27 03:12:47;;;;;;;6.63;4.72;;;;;;;23.45;45.38;93876.78;4976160;28;20041;-67
2022/09/27 03:15:13;;;;;;;6.68;5.00;;;;;;;23.45;45.49;93868.59;4962258;28;20038;-66
2022/09/27 03:17:39;;;;;;;8.88;5.25;;;;;;;23.27;45.63;93836.91;4974056;28;20108;-69
2022/09/27 03:20:04;;;;;;;7.00;5.15;;;;;;;23.30;45.70;93824.94;4964880;28;20534;-68
2022/09/27 03:22:31;;;;;;;7.15;5.93;;;;;;;22.99;45.19;93779.75;4971885;28;20479;-67
2022/09/27 03:24:57;;;;;;;6.15;4.90;;;;;;;23.31;45.82;93831.84;4974346;28;20065;-67
2022/09/27 03:27:22;;;;;;;6.20;5.10;;;;;;;23.03;45.11;93788.31;4978645;28;20411;-67
2022/09/27 03:29:48;;;;;;;5.63;4.70;;;;;;;23.15;45.62;93813.97;4965618;28;20101;-67
2022/09/27 03:32:14;;;;;;;5.45;4.72;;;;;;;23.51;45.68;93855.56;4969406;28;20035;-67
2022/09/27 03:34:39;;;;;;;5.80;4.70;;;;;;;23.31;45.69;93842.03;4969993;28;20115;-65
2022/09/27 03:37:04;;;;;;;6.32;5.10;;;;;;;23.16;45.85;93815.44;4962585;28;20058;-65
2022/09/27 03:39:30;;;;;;;5.63;4.63;;;;;;;22.98;45.30;93789.19;4968947;28;20030;-65
2022/09/27 03:41:56;;;;;;;5.90;4.80;;;;;;;23.09;45.75;93794.34;4962278;28;20039;-65
2022/09/27 03:44:21;;;;;;;5.70;4.50;;;;;;;23.46;45.45;93848.28;4980276;28;20038;-64
2022/09/27 03:46:47;;;;;;;5.85;4.90;;;;;;;23.22;45.47;93813.28;4970459;28;20557;-66
2022/09/27 03:49:12;;;;;;;5.85;4.43;;;;;;;22.97;45.78;93787.00;4962211;28;20043;-66
2022/09/27 03:51:38;;;;;;;6.40;4.90;;;;;;;23.47;45.90;93844.28;4980160;28;20030;-66
2022/09/27 03:54:03;;;;;;;5.55;4.38;;;;;;;23.46;45.62;93864.63;4980692;28;20039;-66
2022/09/27 03:56:29;;;;;;;5.78;4.93;;;;;;;23.29;45.45;93837.13;4979563;28;20499;-67
2022/09/27 03:58:54;;;;;;;6.25;4.95;;;;;;;23.17;45.59;93819.63;4978817;28;20046;-67
2022/09/27 04:01:19;;;;;;;6.05;4.70;;;;;;;23.18;45.71;93818.34;4972170;28;20049;-65
2022/09/27 04:03:45;;;;;;;5.65;4.70;;;;;;;23.40;45.55;93851.16;4970088;28;20034;-69
2022/09/27 04:06:10;;;;;;;6.13;5.18;;;;;;;23.37;45.85;93840.59;4964525;28;20155;-71
2022/09/27 04:08:36;;;;;;;7.13;4.85;;;;;;;23.34;46.03;93836.22;4970848;28;20129;-69
2022/09/27 04:11:02;;;;;;;6.22;5.10;;;;;;;23.50;45.84;93875.91;4943196;28;20042;-69
2022/09/27 04:13:28;;;;;;;6.13;4.70;;;;;;;23.44;45.48;93853.53;4975085;28;20046;-69
2022/09/27 04:15:53;;;;;;;5.53;4.75;;;;;;;23.23;45.48;93820.19;4979816;28;20042;-68
2022/09/27 04:18:19;;;;;;;6.25;5.18;;;;;;;23.42;46.02;93837.72;4960127;28;20490;-68
2022/09/27 04:20:44;;;;;;;5.45;4.80;;;;;;;23.09;45.42;93793.59;4978621;28;20144;-67
2022/09/27 04:23:10;;;;;;;6.18;5.07;;;;;;;23.49;45.61;93852.66;4978831;28;20035;-67
2022/09/27 04:25:35;;;;;;;5.88;5.10;;;;;;;23.43;45.86;93844.63;4981105;28;20030;-66
2022/09/27 04:28:01;;;;;;;5.88;4.72;;;;;;;23.12;45.54;93804.16;4965633;28;20089;-66
2022/09/27 04:30:27;;;;;;;5.65;4.78;;;;;;;23.33;45.50;93828.59;4954649;28;20107;-68
2022/09/27 04:32:53;;;;;;;5.10;4.32;;;;;;;23.00;45.35;93770.34;4961535;28;20042;-67
2022/09/27 04:38:02;;;;;;;5.97;4.75;;;;;;;23.31;45.57;93826.41;4970928;28;20098;-69
2022/09/27 04:40:28;;;;;;;6.90;4.85;;;;;;;23.56;46.08;93849.25;4960262;28;20079;-68
2022/09/27 04:42:53;;;;;;;6.63;4.93;;;;;;;23.65;45.65;93849.50;4975948;28;20049;-68
2022/09/27 04:45:20;;;;;;;5.88;4.53;;;;;;;23.72;45.90;93848.06;4980265;28;20418;-67
2022/09/27 04:47:46;;;;;;;6.47;4.78;;;;;;;23.72;45.74;93848.06;4978242;28;20125;-66
2022/09/27 04:50:12;;;;;;;5.57;4.60;;;;;;;23.42;45.28;93793.38;4978352;28;20850;-66
2022/09/27 04:52:37;;;;;;;6.47;4.55;;;;;;;23.86;44.61;93826.31;4976546;28;20038;-66
2022/09/27 04:55:03;;;;;;;5.90;4.85;;;;;;;24.18;44.94;93867.47;4977715;28;20019;-66
2022/09/27 04:57:29;;;;;;;5.53;4.70;;;;;;;23.76;44.48;93802.81;4977187;28;20022;-67
2022/09/27 04:59:54;;;;;;;5.13;4.63;;;;;;;24.12;46.75;93869.66;4983737;28;20053;-67
2022/09/27 05:02:20;;;;;;;5.50;4.65;;;;;;;23.76;46.95;93815.72;4982007;28;20046;-68
2022/09/27 05:04:45;;;;;;;5.57;4.60;;;;;;;24.02;47.36;93846.91;4978402;28;20395;-69
2022/09/27 05:07:10;;;;;;;6.38;5.15;;;;;;;23.97;47.32;93823.25;4979095;28;20053;-66
2022/09/27 05:09:36;;;;;;;5.85;4.78;;;;;;;24.10;47.12;93825.09;4998870;28;20108;-68
2022/09/27 05:12:02;;;;;;;6.47;4.85;;;;;;;24.00;47.08;93813.97;4998644;28;20053;-67
2022/09/27 05:14:27;;;;;;;7.20;4.88;;;;;;;24.23;46.86;93809.31;4997340;28;20045;-68
2022/09/27 05:16:54;;;;;;;7.53;5.00;;;;;;;23.93;46.65;93759.41;4991007;28;20035;-65
2022/09/27 05:19:19;;;;;;;5.45;4.65;;;;;;;24.11;47.11;93764.56;4986191;28;20042;-67
2022/09/27 05:21:45;;;;;;;6.65;4.80;;;;;;;24.48;47.61;93823.91;4996026;28;20361;-68
2022/09/27 05:24:10;;;;;;;6.28;4.50;;;;;;;24.65;47.55;93824.09;4974752;28;20098;-66
2022/09/27 05:26:36;;;;;;;8.82;5.05;;;;;;;24.19;48.01;93764.56;4976534;28;20038;-66
2022/09/27 05:29:02;;;;;;;6.55;4.28;;;;;;;24.54;48.22;93811.56;4977347;28;20618;-66
2022/09/27 05:31:29;;;;;;;6.28;4.53;;;;;;;24.64;49.81;93817.19;4985614;28;20138;-68
2022/09/27 05:33:54;;;;;;;5.00;4.50;;;;;;;24.19;50.54;93776.19;4999199;28;20026;-67
2022/09/27 05:36:20;;;;;;;5.00;4.45;;;;;;;23.67;51.83;93754.28;4982242;28;20113;-69
2022/09/27 05:38:45;;;;;;;5.55;4.60;;;;;;;24.24;50.91;93783.47;4974982;28;20476;-69
2022/09/27 05:41:12;;;;;;;6.45;4.72;;;;;;;24.23;51.07;93743.09;4981836;28;20769;-68
2022/09/27 05:43:37;;;;;;;5.53;4.32;;;;;;;24.23;50.36;93841.31;4988846;28;20498;-68
2022/09/27 05:46:04;;;;;;;6.45;4.45;;;;;;;24.77;48.74;93817.75;4994312;28;20026;-68
2022/09/27 05:48:30;;;;;;;6.43;4.47;;;;;;;24.62;48.65;93823.19;4998230;28;20030;-64
2022/09/27 05:50:55;;;;;;;7.43;4.68;;;;;;;25.10;47.60;93833.75;5001803;28;20805;-67
2022/09/27 05:53:20;;;;;;;7.15;4.82;;;;;;;25.03;47.23;93834.47;5002328;28;20121;-67
2022/09/27 05:55:47;;;;;;;5.75;4.18;;;;;;;24.78;47.81;93796.63;5002168;28;20380;-69
2022/09/27 05:58:14;;;;;;;5.97;4.63;;;;;;;25.05;47.34;93834.69;5002178;28;20041;-66
2022/09/27 06:00:41;;;;;;;7.22;4.97;;;;;;;24.95;47.74;93844.66;4998888;28;20104;-69
2022/09/27 06:03:06;;;;;;;6.60;4.47;;;;;;;25.01;47.25;93820.66;4994294;28;20428;-67
2022/09/27 06:05:35;;;;;;;6.63;5.07;;;;;;;24.91;46.98;93795.13;4997310;28;20813;-69
2022/09/27 06:08:03;;;;;;;6.07;4.93;;;;;;;24.90;47.15;93788.25;5000302;28;20580;-69
2022/09/27 06:10:29;;;;;;;7.15;4.90;;;;;;;25.29;46.52;93839.56;4998173;28;20042;-66
2022/09/27 06:13:00;;;;;;;7.10;4.95;;;;;;;25.17;47.20;93843.22;4996475;28;20030;-65
2022/09/27 06:15:25;;;;;;;6.25;4.90;;;;;;;24.55;47.29;93752.22;4980866;28;20026;-68
2022/09/27 06:17:51;;;;;;;7.60;5.30;;;;;;;23.94;49.08;93777.97;4986571;28;20147;-66
2022/09/27 06:20:17;;;;;;;8.38;4.50;;;;;;;24.54;48.21;93788.97;4987726;28;20061;-67
2022/09/27 06:22:43;;;;;;;6.82;4.78;;;;;;;24.98;47.12;93794.41;4997426;28;20532;-67
2022/09/27 06:25:09;;;;;;;5.50;4.50;;;;;;;25.15;46.90;93793.84;4990156;28;20033;-65
2022/09/27 06:27:34;;;;;;;8.45;4.97;;;;;;;25.13;46.74;93788.94;4981428;28;20465;-67
2022/09/27 06:30:00;;;;;;;8.48;5.03;;;;;;;24.97;46.99;93764.91;4980710;28;20042;-68
2022/09/27 06:32:25;;;;;;;9.93;5.13;;;;;;;25.26;47.15;93810.59;4978300;28;20039;-64
2022/09/27 06:34:51;;;;;;;6.10;4.50;;;;;;;24.91;46.72;93751.44;4982084;28;20472;-65
2022/09/27 06:37:16;;;;;;;6.30;4.70;;;;;;;25.54;46.61;93843.13;4977365;28;20535;-66
2022/09/27 06:39:42;;;;;;;6.20;4.38;;;;;;;25.38;46.29;93814.38;4978643;28;20408;-65
2022/09/27 06:42:09;;;;;;;5.40;3.97;;;;;;;25.35;46.24;93820.94;4979164;28;20034;-69
2022/09/27 06:44:35;;;;;;;5.82;4.15;;;;;;;25.23;45.96;93792.56;4983398;28;20038;-64
2022/09/27 06:47:01;;;;;;;6.60;4.55;;;;;;;25.40;46.13;93828.22;4988911;28;20026;-66
2022/09/27 06:49:26;;;;;;;5.75;3.97;;;;;;;25.30;45.85;93841.00;5002510;28;20184;-72
2022/09/27 06:51:53;;;;;;;6.57;4.45;;;;;;;25.21;45.74;93841.56;4999020;28;20403;-63
2022/09/27 06:54:19;;;;;;;5.63;4.40;;;;;;;25.15;45.92;93829.38;4966094;28;20021;-63
2022/09/27 06:56:47;;;;;;;6.07;4.10;;;;;;;25.06;45.97;93821.75;4997753;28;20551;-67
2022/09/27 07:01:56;;;;;;;5.57;4.53;;;;;;;24.90;46.13;93831.94;4977068;28;20073;-67
2022/09/27 07:04:24;;;;;;;6.38;4.65;;;;;;;24.69;46.19;93805.34;4980432;28;20043;-66
2022/09/27 07:06:50;;;;;;;5.72;4.40;;;;;;;24.52;46.80;93797.00;4972317;28;20094;-72
2022/09/27 07:09:16;;;;;;;6.10;3.97;;;;;;;24.66;46.71;93834.47;4981574;28;20054;-72
2022/09/27 07:11:43;;;;;;;6.05;4.88;;;;;;;24.69;46.33;93838.13;4983271;28;20046;-68
2022/09/27 07:14:09;;;;;;;5.65;4.35;;;;;;;24.44;46.17;93807.19;4983114;28;20133;-70
2022/09/27 07:16:35;;;;;;;7.38;4.55;;;;;;;24.66;46.27;93844.66;4985547;28;20166;-71
2022/09/27 07:19:01;;;;;;;5.88;4.43;;;;;;;24.49;46.66;93819.91;4988511;28;20022;-70
2022/09/27 07:21:26;;;;;;;5.20;4.70;;;;;;;24.35;46.41;93815.91;4981561;28;20045;-73
2022/09/27 07:23:52;;;;;;;6.00;4.68;;;;;;;24.48;46.72;93815.72;4981454;28;20042;-67
2022/09/27 07:26:17;;;;;;;5.97;4.57;;;;;;;24.55;46.71;93855.94;4982458;28;20062;-71
2022/09/27 07:28:43;;;;;;;5.45;4.40;;;;;;;24.51;46.28;93844.66;4982301;28;20050;-65
2022/09/27 07:31:09;;;;;;;5.85;4.47;;;;;;;24.49;46.42;93853.38;4983665;28;20975;-64
2022/09/27 07:33:34;;;;;;;5.50;4.57;;;;;;;24.48;46.62;93851.19;4998323;28;20451;-67
2022/09/27 07:36:05;;;;;;;6.53;4.85;;;;;;;24.48;46.95;93834.81;4964314;28;20062;-65
2022/09/27 07:38:31;;;;;;;5.68;4.47;;;;;;;24.30;46.62;93814.03;4946565;28;20124;-67
2022/09/27 07:40:56;;;;;;;5.43;4.50;;;;;;;24.22;46.73;93818.03;4977534;28;20451;-68
2022/09/27 07:43:22;;;;;;;6.15;5.10;;;;;;;24.37;47.09;93862.47;4961002;28;20109;-67
2022/09/27 07:45:48;;;;;;;6.65;4.80;;;;;;;24.27;46.96;93847.84;4972472;28;20034;-67
2022/09/27 07:48:14;;;;;;;6.82;5.03;;;;;;;24.02;47.16;93832.53;4978432;28;20536;-64
2022/09/27 07:50:39;;;;;;;7.45;5.22;;;;;;;24.17;46.83;93860.59;4946620;28;20033;-68
2022/09/27 07:53:05;;;;;;;6.95;5.05;;;;;;;24.24;47.31;93865.31;4979446;28;20285;-64
2022/09/27 07:55:30;;;;;;;6.57;4.57;;;;;;;24.03;47.34;93839.44;4951833;28;20039;-66
2022/09/27 07:58:09;;;;;;;6.85;5.05;;;;;;;24.19;47.01;93860.03;4968531;28;20025;-62
2022/09/27 08:00:36;;;;;;;6.73;5.10;;;;;;;24.14;47.00;93861.66;4955248;28;20570;-64
2022/09/27 08:03:09;;;;;;;6.55;4.65;;;;;;;23.93;47.02;93836.50;4960873;28;20062;-66
2022/09/27 08:05:35;;;;;;;6.43;5.13;;;;;;;24.05;47.17;93837.63;4972846;28;20141;-65
2022/09/27 08:08:00;;;;;;;5.85;5.13;;;;;;;24.11;47.18;93827.28;4980590;28;20519;-65
2022/09/27 08:10:29;;;;;;;7.32;5.32;;;;;;;23.87;47.14;93789.59;4980978;28;20038;-59
2022/09/27 08:12:55;;;;;;;6.43;5.00;;;;;;;24.04;47.47;93825.25;4980208;28;20531;-67
2022/09/27 08:15:20;;;;;;;6.80;4.97;;;;;;;23.94;47.47;93788.88;4980050;28;20034;-62
2022/09/27 08:17:46;;;;;;;6.80;5.50;;;;;;;24.13;47.45;93827.47;4972799;28;20034;-60
2022/09/27 08:20:13;;;;;;;6.82;5.35;;;;;;;23.59;47.19;93747.34;4958569;28;20069;-59
2022/09/27 08:22:41;;;;;;;7.28;5.80;;;;;;;23.84;47.30;93800.13;4974707;28;20121;-62
2022/09/27 08:25:07;;;;;;;6.25;5.15;;;;;;;24.06;47.16;93850.00;4966051;28;20027;-60
2022/09/27 08:27:33;;;;;;;7.10;5.10;;;;;;;24.03;47.48;93839.44;4965351;28;20022;-60
2022/09/27 08:29:59;;;;;;;6.95;5.22;;;;;;;23.89;47.83;93816.31;4982952;28;20782;-62
2022/09/27 08:32:25;;;;;;;6.72;5.18;;;;;;;24.02;47.48;93827.81;4979579;28;20056;-60
2022/09/27 08:34:50;;;;;;;7.07;5.32;;;;;;;23.99;47.35;93823.44;4984674;28;20130;-63
2022/09/27 08:37:16;;;;;;;5.97;5.38;;;;;;;23.92;47.52;93807.78;4981962;28;20038;-63
2022/09/27 08:39:41;;;;;;;7.53;5.53;;;;;;;23.97;47.28;93798.69;4976520;28;20031;-63
2022/09/27 08:42:35;;;;;;;8.82;5.63;;;;;;;24.03;47.06;93812.88;4979823;28;20050;-65
2022/09/27 08:45:08;;;;;;;6.00;5.07;;;;;;;23.96;47.09;93801.97;4975035;28;20041;-62
2022/09/27 08:47:46;;;;;;;6.70;5.57;;;;;;;24.04;47.56;93803.44;4981471;28;20069;-70
2022/09/27 08:50:29;;;;;;;6.30;5.38;;;;;;;23.93;47.66;93811.97;4983470;28;20112;-65
2022/09/27 08:53:01;;;;;;;6.90;5.85;;;;;;;23.88;47.47;93796.53;4970653;28;20035;-62
2022/09/27 08:55:36;;;;;;;7.35;5.82;;;;;;;23.75;47.53;93773.38;4980263;28;20198;-66
2022/09/27 08:58:02;;;;;;;8.80;5.78;;;;;;;24.00;47.68;93818.72;4973295;28;20048;-69
2022/09/27 09:00:28;;;;;;;6.30;5.40;;;;;;;23.94;47.69;93799.78;4959240;28;20037;-68
2022/09/27 09:02:55;;;;;;;7.68;5.47;;;;;;;24.03;47.58;93796.53;4993592;28;20077;-63
2022/09/27 09:05:33;;;;;;;6.43;5.45;;;;;;;23.82;47.71;93753.59;4995530;28;20518;-66
2022/09/27 09:08:14;;;;;;;6.63;5.80;;;;;;;24.08;47.34;93803.84;4986051;28;20072;-71
2022/09/27 09:14:01;;;;;;;7.00;5.43;;;;;;;24.17;47.02;93803.31;4959758;28;21019;-64
2022/09/27 09:16:27;;;;;;;6.63;5.32;;;;;;;24.00;47.64;93786.69;4980835;28;20903;-70
2022/09/27 09:19:14;;;;;;;7.43;5.28;;;;;;;24.18;47.29;93795.84;4989689;28;20061;-69
2022/09/27 09:22:29;;;;;;;6.72;5.50;;;;;;;24.39;46.63;93794.44;5002977;28;20120;-68
2022/09/27 09:25:10;;;;;;;6.82;5.50;;;;;;;24.63;46.94;93769.31;4958703;28;20057;-66
2022/09/27 09:27:35;;;;;;;9.05;5.45;;;;;;;24.81;46.47;93781.88;4978980;28;20031;-68
2022/09/27 09:30:19;;;;;;;10.85;7.15;;;;;;;25.08;50.32;93800.06;4998902;28;20737;-72
2022/09/27 09:33:06;;;;;;;12.73;7.95;;;;;;;25.72;50.32;93773.66;4989071;28;20050;-68
2022/09/27 09:35:36;;;;;;;8.88;7.45;;;;;;;25.84;49.50;93761.72;4992540;28;20057;-70
2022/09/27 09:38:04;;;;;;;9.40;7.10;;;;;;;26.04;50.43;93780.59;4984332;28;20107;-72
2022/09/27 09:40:36;;;;;;;7.60;6.63;;;;;;;25.94;50.80;93776.97;5004216;28;20037;-61
2022/09/27 09:43:23;;;;;;;8.43;6.45;;;;;;;26.30;50.23;93785.56;4965809;28;20019;-68
2022/09/27 09:46:06;;;;;;;9.75;7.15;;;;;;;26.21;48.83;93747.81;4998945;28;20034;-67
2022/09/27 09:48:48;;;;;;;9.68;7.03;;;;;;;26.15;49.09;93752.78;4988328;28;20037;-64
2022/09/27 09:51:23;;;;;;;9.32;6.68;;;;;;;26.40;48.98;93794.63;4987310;28;20200;-66
2022/09/27 09:53:53;;;;;;;7.60;6.85;;;;;;;26.61;49.19;93792.28;4980354;28;20034;-70
2022/09/27 09:56:23;;;;;;;10.88;7.15;;;;;;;26.75;48.26;93771.50;4979784;28;20077;-65
2022/09/27 09:58:52;;;;;;;7.43;6.65;;;;;;;26.74;48.92;93767.31;4972221;28;20046;-66
2022/09/27 10:01:25;;;;;;;11.02;6.68;;;;;;;26.67;49.10;93788.00;4964156;28;20097;-66
2022/09/27 10:03:50;;;;;;;7.60;6.50;;;;;;;26.26;48.58;93703.06;4979392;28;20796;-65
2022/09/27 10:06:16;;;;;;;7.90;6.00;;;;;;;26.83;48.47;93765.41;4990937;28;20073;-66
2022/09/27 10:08:41;;;;;;;7.72;6.50;;;;;;;26.70;48.96;93761.53;4966992;28;20038;-66
2022/09/27 10:11:15;;;;;;;9.20;6.65;;;;;;;26.92;48.07;93794.19;4946417;28;20405;-66
2022/09/27 10:13:40;;;;;;;8.13;6.50;;;;;;;26.57;48.75;93764.53;4964042;28;20045;-66
2022/09/27 10:16:08;;;;;;;9.35;6.55;;;;;;;27.04;48.56;93762.31;4998687;28;20747;-65
2022/09/27 10:18:35;;;;;;;11.27;6.88;;;;;;;26.80;48.00;93728.19;4963495;28;20428;-69
2022/09/27 10:21:02;;;;;;;8.82;6.60;;;;;;;27.25;47.66;93727.75;4958309;28;20042;-69
2022/09/27 10:23:28;;;;;;;8.65;6.40;;;;;;;26.80;48.73;93750.09;4932374;28;20050;-67
2022/09/27 10:26:01;;;;;;;7.68;6.47;;;;;;;27.04;48.51;93748.59;4976140;28;20153;-71
2022/09/27 10:28:36;;;;;;;6.68;5.70;;;;;;;27.39;47.69;93759.72;4962413;28;20050;-68
2022/09/27 10:31:06;;;;;;;6.43;5.40;;;;;;;26.19;49.98;93758.59;4950947;28;20053;-69
2022/09/27 10:33:31;;;;;;;9.15;5.20;;;;;;;25.81;50.81;93763.56;4979958;28;20458;-61
2022/09/27 10:35:58;;;;;;;6.70;5.40;;;;;;;25.50;51.40;93764.25;4990335;28;20137;-62
2022/09/27 10:38:26;;;;;;;7.80;5.05;;;;;;;25.56;50.88;93751.09;4992982;28;20128;-66
2022/09/27 10:40:52;;;;;;;5.57;4.80;;;;;;;25.09;51.66;93733.94;4956764;28;20129;-59
2022/09/27 10:43:43;;;;;;;7.63;5.22;;;;;;;25.22;51.84;93763.78;4979514;28;20042;-65
2022/09/27 10:46:15;;;;;;;6.72;5.60;;;;;;;24.96;52.41;93720.50;4979880;28;20065;-64
2022/09/27 10:48:41;;;;;;;6.72;4.97;;;;;;;24.92;52.06;93703.75;4977754;28;20093;-64
2022/09/27 10:51:22;;;;;;;6.28;4.60;;;;;;;25.10;51.85;93735.41;4956727;28;20515;-63
2022/09/27 10:53:49;;;;;;;7.45;5.15;;;;;;;25.13;51.26;93734.31;4947399;28;20507;-64
2022/09/27 10:56:26;;;;;;;6.47;4.28;;;;;;;24.44;51.04;93681.66;4979255;28;20061;-65
2022/09/27 10:58:52;;;;;;;6.25;4.55;;;;;;;24.68;51.33;93722.00;4929130;28;20047;-64
2022/09/27 11:01:17;;;;;;;5.95;4.28;;;;;;;24.48;50.92;93687.44;4960555;28;20065;-63
2022/09/27 11:03:51;;;;;;;5.30;4.43;;;;;;;24.01;51.04;93613.63;4979647;28;20379;-65
2022/09/27 11:06:27;;;;;;;5.57;4.25;;;;;;;24.45;51.50;93694.00;4958615;28;20051;-65
2022/09/27 11:08:53;;;;;;;5.35;4.30;;;;;;;24.19;50.91;93660.91;4977147;28;20054;-70
2022/09/27 11:11:28;;;;;;;5.93;4.35;;;;;;;24.61;50.92;93717.28;4978484;28;20042;-59
2022/09/27 11:14:06;;;;;;;5.30;4.53;;;;;;;24.39;51.44;93691.47;4979724;28;20042;-66
2022/09/27 11:17:08;;;;;;;4.80;4.30;;;;;;;24.25;51.30;93659.44;4980241;28;20034;-65
2022/09/27 11:19:46;;;;;;;6.15;4.45;;;;;;;24.46;51.30;93690.72;4947763;28;20038;-64
2022/09/27 11:22:43;;;;;;;5.45;4.10;;;;;;;24.08;51.50;93640.19;4990809;28;20477;-64
2022/09/27 11:25:38;;;;;;;5.07;4.35;;;;;;;24.51;51.40;93702.72;4983005;28;20422;-69
2022/09/27 11:28:28;;;;;;;4.75;4.25;;;;;;;24.62;50.86;93696.88;4981701;28;20916;-61
2022/09/27 11:30:54;;;;;;;5.40;4.10;;;;;;;24.59;51.09;93687.09;4983355;28;20060;-64
2022/09/27 11:33:55;;;;;;;4.88;4.00;;;;;;;24.18;50.96;93638.34;4996263;28;20526;-64
2022/09/27 11:37:03;;;;;;;5.90;4.40;;;;;;;24.65;50.63;93668.50;4992355;28;20510;-64
2022/09/27 11:40:04;;;;;;;5.13;4.03;;;;;;;24.45;50.66;93644.88;4947428;28;20057;-65
2022/09/27 11:42:48;;;;;;;6.30;4.00;;;;;;;24.52;51.46;93649.59;4937175;29;20043;-67
2022/09/27 11:45:29;;;;;;;4.75;3.92;;;;;;;24.65;50.38;93652.09;4982073;28;20042;-66
2022/09/27 11:48:21;;;;;;;5.18;4.10;;;;;;;24.50;51.17;93657.63;4969989;28;20144;-66
2022/09/27 11:50:54;;;;;;;4.43;3.63;;;;;;;24.58;51.03;93659.03;4971425;28;20066;-64
2022/09/27 11:53:23;;;;;;;4.45;3.75;;;;;;;24.61;51.41;93651.78;4960873;28;20929;-62
2022/09/27 11:55:48;;;;;;;5.53;3.80;;;;;;;24.78;50.34;93643.72;4968436;28;20046;-61
2022/09/27 11:58:24;;;;;;;5.97;3.90;;;;;;;24.78;50.64;93646.44;4966568;28;20403;-65